KINTKMWK

Guest
Details From KINT - Smith Reynolds
To KMWK - Mt Airy Surry Co
Flight Number -
Tags Generated
Created
Modified
Stats Distance 25 nm / 47 km
Max Altitude 0 ft / 0 m
Waypoints 2
Social Downloads 1
Likes 0
Share VATSIM

Download

Looking for another format? Having issues loading an existing format? Contact us
Advertisement - Login to hide

Notes

Generated

Route

KINT KMWK

ID Type Via Altitude Latitude Longitude Leg Dist Tot Dist Heading (true) Name
O KINT APT - 0 ft / 0 m 36.13881˚ -80.22629˚ - 0 nm - -
O KMWK APT - 0 ft / 0 m 36.46560˚ -80.55382˚ 25 nm 25 nm 321° / 321° -

Altitude Profile

Advertisement - Login to hide

KINT

Details ICAO KINT (INT)
Name Smith Reynolds
Region United States
Timezone America/New_York (UTC-5.0)
Stats Elevation 969 ft / 295 m (AMSL)
Location 36.134529° -80.222753°
Runways 2
Magnetic Variation 8.318° W

METAR

KINT 151354Z 04007KT 10SM CLR 00/M06 A3001 RMK AO2 SLP165 T00001061

Decode

TAF

TAF KINT 151120Z 1512/1612 04009KT P6SM SCT050 FM151900 VRB03KT P6SM SCT250

Decode

Departure Runways

ID Width Length Bearing (true) Bearing (mag) Surface Threshold Offset Overrun Length
04 151 ft / 46 m 3,943 ft / 1,202 m 30.62° 38.94° Asphalt 0 ft / 0 m 0 ft / 0 m
15 151 ft / 46 m 6,661 ft / 2,030 m 144.75° 153.07° Asphalt 587 ft / 179 m 0 ft / 0 m
22 151 ft / 46 m 3,943 ft / 1,202 m 210.62° 218.94° Asphalt 0 ft / 0 m 0 ft / 0 m
33 151 ft / 46 m 6,661 ft / 2,030 m 324.76° 333.08° Asphalt 0 ft / 0 m 0 ft / 0 m

KMWK

Details ICAO KMWK
Name MT AIRY SURRY CO
Region United States
Timezone America/New_York (UTC-5.0)
Stats Elevation 1,247 ft / 380 m (AMSL)
Location 36.459735° -80.552959°
Runways 1
Magnetic Variation 8.160° W

METAR

KMWK 151425Z AUTO 09005KT 10SM OVC025 01/M05 A3000 RMK AO2 T00071055

Decode

TAF

Not found

Destination Runways

ID Width Length Bearing (true) Bearing (mag) Surface Threshold Offset Overrun Length
18 75 ft / 23 m 4,312 ft / 1,314 m 173.29° 181.45° Asphalt 500 ft / 152 m 0 ft / 0 m
36 75 ft / 23 m 4,312 ft / 1,314 m 353.29° 1.45° Asphalt 0 ft / 0 m 0 ft / 0 m